EDHL 200050Z AUTO 26005KT 230V300 6000 // FEW008/// BKN021/// BKN030/// 17/16 Q1018 EDHL 200020Z AUTO 26005KT 220V300 7000 // FEW010/// OVC039/// 17/16 Q1018 EDHL 192350Z AUTO 27006KT 240V310 6000 // FEW006/// BKN038/// 17/16 Q1018 EDHL 192320Z AUTO 26006KT 220V310 4800 // BKN005/// OVC033/// 17/17 Q1017 EDHL 192250Z AUTO 26006KT 230V290 4800 // OVC004/// 17/17 Q1017 EDHL 192220Z AUTO 26004KT 210V300 6000 // BKN005/// 17/16 Q1017 EDHL 192150Z AUTO VRB02KT 9000 // FEW010/// SCT017/// BKN029/// 17/16 Q1017 EDHL 192120Z AUTO VRB02KT 8000 // BKN029/// BKN039/// 16/16 Q1017 EDHL 192050Z VRB03KT CAVOK 16/16 Q1017 EDHL 192020Z VRB02KT CAVOK 16/16 Q1016 EDHL 191950Z 19003KT 140V260 CAVOK 17/16 Q1016 EDHL 191920Z VRB02KT CAVOK 17/16 Q1016 EDHL 191850Z 16004KT 130V200 9999 -RA BKN035 17/16 Q1015 EDHL 191820Z 05004KT 340V070 9000 -SHRA FEW030 SCT036CB BKN043 17/16 Q1015 EDHL 191750Z 28008KT 240V300 7000 SHRA VCTS FEW005CB OVC038 17/17 Q1017 EDHL 191720Z 28019G33KT 240V310 3700 RA FEW005 SCT009 OVC038 18/17 Q1016 EDHL 191650Z VRB01KT CAVOK 26/14 Q1014 EDHL 191620Z VRB02KT CAVOK 27/14 Q1014 EDHL 191550Z VRB02KT CAVOK 27/13 Q1015 RMK EDHL 191520Z VRB04KT CAVOK 28/13 Q1015 RMK EDHL 191450Z VRB04KT CAVOK 27/13 Q1015 EDHL 191420Z VRB04KT CAVOK 29/13 Q1015 RMK EDHL 191350Z 19006KT 140V260 CAVOK 28/13 Q1016 RMK EDHL 191320Z VRB04KT CAVOK 29/12 Q1016 EDHL 191250Z VRB06KT CAVOK 28/13 Q1016 EDHL 191220Z VRB06KT CAVOK 28/13 Q1016 RMK EDHL 191150Z 19006KT 080V250 CAVOK 28/14 Q1017 RMK EDHL 191120Z 19005KT 110V260 CAVOK 27/14 Q1017 RMK EDHL 191050Z 19005KT 130V300 CAVOK 27/14 Q1017 EDHL 191020Z VRB04KT CAVOK 27/15 Q1018 RMK EDHL 190950Z 20006KT 130V300 CAVOK 27/15 Q1018 RMK EDHL 190920Z 19005KT 130V280 CAVOK 26/16 Q1018 RMK EDHL 190850Z VRB05KT CAVOK 25/16 Q1018 RMK EDHL 190820Z 19005KT 100V270 CAVOK 24/16 Q1018 RMK EDHL 190750Z 17005KT 080V220 CAVOK 23/16 Q1019 RMK EDHL 190720Z VRB03KT CAVOK 22/15 Q1019 RMK EDHL 190650Z VRB02KT CAVOK 21/15 Q1019 RMK EDHL 190620Z VRB02KT CAVOK 20/14 Q1019 RMK EDHL 190550Z 15004KT 120V210 CAVOK 19/14 Q1019 RMK EDHL 190520Z 16004KT 080V250 CAVOK 18/14 Q1019 RMK EDHL 190450Z 16005KT 100V200 CAVOK 17/13 Q1019 RMK EDHL 190420Z 16004KT 110V210 CAVOK 17/13 Q1019 RMK EDHL 190350Z AUTO 16004KT 080V230 9999 // SCT100/// 17/13 Q1019 EDHL 190320Z AUTO 16005KT 110V210 9999 // SCT110/// 18/13 Q1019 EDHL 190250Z AUTO 16004KT 110V200 9999 // FEW100/// 18/13 Q1019 EDHL 190220Z AUTO 16005KT 120V200 9999 // BKN100/// 18/13 Q1019 EDHL 190150Z AUTO 17005KT 130V210 9999 // OVC098/// 19/14 Q1019 EDHL 190120Z AUTO 16006KT 100V190 9999 // BKN097/// BKN110/// 19/14 Q1019 EDHL 190050Z AUTO 15005KT 120V190 9999 // OVC093/// 19/14 Q1019 EDHL 190020Z AUTO 15005KT 120V200 9999 // OVC091/// 19/14 Q1019 EDHL 182350Z AUTO 15005KT 120V190 9999 // OVC100/// 19/14 Q1020 EDHL 182320Z AUTO 15005KT 110V180 9999 // BKN120/// 19/14 Q1020 EDHL 182250Z AUTO 16004KT 130V200 9999 // FEW120/// 19/14 Q1020 EDHL 182220Z AUTO 16004KT 110V200 9999 // FEW120/// 20/14 Q1020 EDHL 182150Z AUTO 14004KT 080V190 9999 // FEW120/// 20/14 Q1020 EDHL 182120Z AUTO 14004KT 080V190 9999 // FEW120/// 20/14 Q1020 EDHL 182050Z AUTO 14003KT 090V190 9999 // FEW130/// 20/14 Q1020 EDHL 182020Z AUTO 14003KT 070V190 9999 // FEW130/// 21/14 Q1020 EDHL 181950Z AUTO 14005KT 090V200 9999 // FEW140/// 22/14 Q1020 EDHL 181920Z AUTO 14004KT 110V200 9999 // BKN130/// 22/14 Q1020 EDHL 181850Z 14004KT 100V200 CAVOK 23/15 Q1020 EDHL 181820Z 13004KT 080V250 CAVOK 23/15 Q1020 EDHL 181750Z 14005KT 100V180 CAVOK 24/14 Q1020 EDHL 181720Z 14006KT 090V190 CAVOK 25/14 Q1020 EDHL 181650Z 14006KT 070V190 CAVOK 25/15 Q1021 EDHL 181620Z 14006KT 080V210 CAVOK 25/14 Q1021 EDHL 181550Z 14007KT 080V190 CAVOK 25/15 Q1021 EDHL 181520Z 14007KT 090V200 CAVOK 25/15 Q1021 EDHL 181450Z 14008KT 100V190 9999 FEW040 25/15 Q1021 EDHL 181420Z 14008KT 080V200 CAVOK 25/15 Q1021 EDHL 181350Z 14009KT 090V170 CAVOK 24/14 Q1021 EDHL 181320Z 14009KT 090V190 CAVOK 24/14 Q1022

METAR Messwerte "LUEBECK/BLANKENS" EDHL

Zurück zur Übersicht

Ortsname
Ländercode / m ü. NN
Zeit Temperatur Taupunkt Rel.
Luftfeuchte
Luftdruck:
Altimeter
NN
Station
Wind in Beaufort
(Knoten)
Sichtweite
(Meter)
Wolken
(Meter über Grund)
Wettererscheinung
LUEBECK/BLANKENS
DE 13
Fr 20.05. 02:50171694 %1018
1018
1016
W 2 (5)
SW - WNW
6000Stark bewölkt (910)
Stark bewölkt (640)
Leicht bewölkt (240)
 
LUEBECK/BLANKENS
DE 13
Fr 20.05. 02:20171694 %1018
1018
1016
W 2 (5)
SW - WNW
7000Bedeckt (1200)
Leicht bewölkt (300)
 
LUEBECK/BLANKENS
DE 13
Fr 20.05. 01:50171694 %1018
1018
1016
W 2 (6)
WSW - NW
6000Stark bewölkt (1200)
Leicht bewölkt (180)
 
LUEBECK/BLANKENS
DE 13
Fr 20.05. 01:201717100 %1017
1017
1015
W 2 (6)
SW - NW
4800Bedeckt (1000)
Stark bewölkt (150)
 
LUEBECK/BLANKENS
DE 13
Fr 20.05. 00:501717100 %1017
1017
1015
W 2 (6)
SW - WNW
4800Bedeckt (120) 
LUEBECK/BLANKENS
DE 13
Fr 20.05. 00:20171694 %1017
1017
1015
W 2 (4)
SSW - WNW
6000Stark bewölkt (150) 
LUEBECK/BLANKENS
DE 13
Do 19.05. 23:50171694 %1017
1017
1015
Uml 1 (2)9000Stark bewölkt (880)
Wolkig (520)
Leicht bewölkt (300)
 
LUEBECK/BLANKENS
DE 13
Do 19.05. 23:201616100 %1017
1017
1015
Uml 1 (2)8000Stark bewölkt (1200)
Stark bewölkt (880)
 
LUEBECK/BLANKENS
DE 13
Do 19.05. 22:501616100 %1017
1017
1015
Uml 2 (3)>= 10000Nicht signifikant 
LUEBECK/BLANKENS
DE 13
Do 19.05. 22:201616100 %1016
1016
1014
Uml 1 (2)>= 10000Nicht signifikant 
LUEBECK/BLANKENS
DE 13
Do 19.05. 21:50171694 %1016
1016
1014
S 2 (3)
SO - W
>= 10000Nicht signifikant 
LUEBECK/BLANKENS
DE 13
Do 19.05. 21:20171694 %1016
1016
1014
Uml 1 (2)>= 10000Nicht signifikant 
LUEBECK/BLANKENS
DE 13
Do 19.05. 20:50171694 %1015
1015
1013
SSO 2 (4)
SO - SSW
>= 10000Stark bewölkt (1100)Regen (schwach)
LUEBECK/BLANKENS
DE 13
Do 19.05. 20:20171694 %1015
1015
1013
NO 2 (4)
NNW - ONO
9000Stark bewölkt (1300)
Wolkig Cb (1100)
Leicht bewölkt (910)
Regen-Schauer (schwach)
LUEBECK/BLANKENS
DE 13
Do 19.05. 19:501717100 %1017
1017
1015
W 3 (8)
WSW - WNW
7000Bedeckt (1200)
Leicht bewölkt Cb (150)
Regen-Schauer
LUEBECK/BLANKENS
DE 13
Do 19.05. 19:20181794 %1016
1016
1014
W 5 (19) - 7 (33)
WSW - NW
3700Bedeckt (1200)
Wolkig (270)
Leicht bewölkt (150)
Regen
LUEBECK/BLANKENS
DE 13
Do 19.05. 18:50261448 %1014
1014
1012
Uml 1 (1)>= 10000Nicht signifikant 
LUEBECK/BLANKENS
DE 13
Do 19.05. 18:20271445 %1014
1014
1012
Uml 1 (2)>= 10000Nicht signifikant 
LUEBECK/BLANKENS
DE 13
Do 19.05. 17:50271342 %1015
1015
1013
Uml 1 (2)>= 10000Nicht signifikant 
LUEBECK/BLANKENS
DE 13
Do 19.05. 17:20281340 %1015
1015
1013
Uml 2 (4)>= 10000Nicht signifikant 
LUEBECK/BLANKENS
DE 13
Do 19.05. 16:50271342 %1015
1015
1013
Uml 2 (4)>= 10000Nicht signifikant 
LUEBECK/BLANKENS
DE 13
Do 19.05. 16:20291337 %1015
1015
1013
Uml 2 (4)>= 10000Nicht signifikant 
LUEBECK/BLANKENS
DE 13
Do 19.05. 15:50281340 %1016
1016
1014
S 2 (6)
SO - W
>= 10000Nicht signifikant 
LUEBECK/BLANKENS
DE 13
Do 19.05. 15:20291235 %1016
1016
1014
Uml 2 (4)>= 10000Nicht signifikant 
LUEBECK/BLANKENS
DE 13
Do 19.05. 14:50281340 %1016
1016
1014
Uml 2 (6)>= 10000Nicht signifikant 
LUEBECK/BLANKENS
DE 13
Do 19.05. 14:20281340 %1016
1016
1014
Uml 2 (6)>= 10000Nicht signifikant 
LUEBECK/BLANKENS
DE 13
Do 19.05. 13:50281442 %1017
1017
1015
S 2 (6)
O - WSW
>= 10000Nicht signifikant 
LUEBECK/BLANKENS
DE 13
Do 19.05. 13:20271445 %1017
1017
1015
S 2 (5)
OSO - W
>= 10000Nicht signifikant 
LUEBECK/BLANKENS
DE 13
Do 19.05. 12:50271445 %1017
1017
1015
S 2 (5)
SO - WNW
>= 10000Nicht signifikant 
LUEBECK/BLANKENS
DE 13
Do 19.05. 12:20271548 %1018
1018
1016
Uml 2 (4)>= 10000Nicht signifikant 
LUEBECK/BLANKENS
DE 13
Do 19.05. 11:50271548 %1018
1018
1016
SSW 2 (6)
SO - WNW
>= 10000Nicht signifikant 
LUEBECK/BLANKENS
DE 13
Do 19.05. 11:20261654 %1018
1018
1016
S 2 (5)
SO - W
>= 10000Nicht signifikant 
LUEBECK/BLANKENS
DE 13
Do 19.05. 10:50251657 %1018
1018
1016
Uml 2 (5)>= 10000Nicht signifikant 
LUEBECK/BLANKENS
DE 13
Do 19.05. 10:20241661 %1018
1018
1016
S 2 (5)
O - W
>= 10000Nicht signifikant 
LUEBECK/BLANKENS
DE 13
Do 19.05. 09:50231665 %1019
1019
1017
S 2 (5)
O - SW
>= 10000Nicht signifikant 
LUEBECK/BLANKENS
DE 13
Do 19.05. 09:20221565 %1019
1019
1017
Uml 2 (3)>= 10000Nicht signifikant 
LUEBECK/BLANKENS
DE 13
Do 19.05. 08:50211569 %1019
1019
1017
Uml 1 (2)>= 10000Nicht signifikant 
LUEBECK/BLANKENS
DE 13
Do 19.05. 08:20201468 %1019
1019
1017
Uml 1 (2)>= 10000Nicht signifikant 
LUEBECK/BLANKENS
DE 13
Do 19.05. 07:50191473 %1019
1019
1017
SSO 2 (4)
OSO - SSW
>= 10000Nicht signifikant 
LUEBECK/BLANKENS
DE 13
Do 19.05. 07:20181477 %1019
1019
1017
SSO 2 (4)
O - WSW
>= 10000Nicht signifikant 
LUEBECK/BLANKENS
DE 13
Do 19.05. 06:50171377 %1019
1019
1017
SSO 2 (5)
O - SSW
>= 10000Nicht signifikant 
LUEBECK/BLANKENS
DE 13
Do 19.05. 06:20171377 %1019
1019
1017
SSO 2 (4)
OSO - SSW
>= 10000Nicht signifikant 
LUEBECK/BLANKENS
DE 13
Do 19.05. 05:50171377 %1019
1019
1017
SSO 2 (4)
O - SW
>= 10000Wolkig (3000) 
LUEBECK/BLANKENS
DE 13
Do 19.05. 05:20181373 %1019
1019
1017
SSO 2 (5)
OSO - SSW
>= 10000Wolkig (3400) 
LUEBECK/BLANKENS
DE 13
Do 19.05. 04:50181373 %1019
1019
1017
SSO 2 (4)
OSO - SSW
>= 10000Leicht bewölkt (3000) 
LUEBECK/BLANKENS
DE 13
Do 19.05. 04:20181373 %1019
1019
1017
SSO 2 (5)
OSO - SSW
>= 10000Stark bewölkt (3000) 
LUEBECK/BLANKENS
DE 13
Do 19.05. 03:50191473 %1019
1019
1017
S 2 (5)
SO - SSW
>= 10000Bedeckt (3000) 
LUEBECK/BLANKENS
DE 13
Do 19.05. 03:20191473 %1019
1019
1017
SSO 2 (6)
O - S
>= 10000Stark bewölkt (3400)
Stark bewölkt (3000)
 
LUEBECK/BLANKENS
DE 13
Do 19.05. 02:50191473 %1019
1019
1017
SSO 2 (5)
OSO - S
>= 10000Bedeckt (2800) 
LUEBECK/BLANKENS
DE 13
Do 19.05. 02:20191473 %1019
1019
1017
SSO 2 (5)
OSO - SSW
>= 10000Bedeckt (2800) 
LUEBECK/BLANKENS
DE 13
Do 19.05. 01:50191473 %1020
1020
1018
SSO 2 (5)
OSO - S
>= 10000Bedeckt (3000) 
LUEBECK/BLANKENS
DE 13
Do 19.05. 01:20191473 %1020
1020
1018
SSO 2 (5)
OSO - S
>= 10000Stark bewölkt (3700) 
LUEBECK/BLANKENS
DE 13
Do 19.05. 00:50191473 %1020
1020
1018
SSO 2 (4)
SO - SSW
>= 10000Leicht bewölkt (3700) 
LUEBECK/BLANKENS
DE 13
Do 19.05. 00:20201468 %1020
1020
1018
SSO 2 (4)
OSO - SSW
>= 10000Leicht bewölkt (3700) 
LUEBECK/BLANKENS
DE 13
Mi 18.05. 23:50201468 %1020
1020
1018
SO 2 (4)
O - S
>= 10000Leicht bewölkt (3700) 
LUEBECK/BLANKENS
DE 13
Mi 18.05. 23:20201468 %1020
1020
1018
SO 2 (4)
O - S
>= 10000Leicht bewölkt (3700) 
LUEBECK/BLANKENS
DE 13
Mi 18.05. 22:50201468 %1020
1020
1018
SO 2 (3)
O - S
>= 10000Leicht bewölkt (4000) 
LUEBECK/BLANKENS
DE 13
Mi 18.05. 22:20211464 %1020
1020
1018
SO 2 (3)
ONO - S
>= 10000Leicht bewölkt (4000) 
LUEBECK/BLANKENS
DE 13
Mi 18.05. 21:50221460 %1020
1020
1018
SO 2 (5)
O - SSW
>= 10000Leicht bewölkt (4300) 
LUEBECK/BLANKENS
DE 13
Mi 18.05. 21:20221460 %1020
1020
1018
SO 2 (4)
OSO - SSW
>= 10000Stark bewölkt (4000) 
LUEBECK/BLANKENS
DE 13
Mi 18.05. 20:50231561 %1020
1020
1018
SO 2 (4)
O - SSW
>= 10000Nicht signifikant 
LUEBECK/BLANKENS
DE 13
Mi 18.05. 20:20231561 %1020
1020
1018
SO 2 (4)
O - WSW
>= 10000Nicht signifikant 
LUEBECK/BLANKENS
DE 13
Mi 18.05. 19:50241454 %1020
1020
1018
SO 2 (5)
O - S
>= 10000Nicht signifikant 
LUEBECK/BLANKENS
DE 13
Mi 18.05. 19:20251450 %1020
1020
1018
SO 2 (6)
O - S
>= 10000Nicht signifikant 
LUEBECK/BLANKENS
DE 13
Mi 18.05. 18:50251554 %1021
1021
1019
SO 2 (6)
ONO - S
>= 10000Nicht signifikant 
LUEBECK/BLANKENS
DE 13
Mi 18.05. 18:20251450 %1021
1021
1019
SO 2 (6)
O - SSW
>= 10000Nicht signifikant 
LUEBECK/BLANKENS
DE 13
Mi 18.05. 17:50251554 %1021
1021
1019
SO 3 (7)
O - S
>= 10000Nicht signifikant 
LUEBECK/BLANKENS
DE 13
Mi 18.05. 17:20251554 %1021
1021
1019
SO 3 (7)
O - SSW
>= 10000Nicht signifikant 
LUEBECK/BLANKENS
DE 13
Mi 18.05. 16:50251554 %1021
1021
1019
SO 3 (8)
O - S
>= 10000Leicht bewölkt (1200) 
LUEBECK/BLANKENS
DE 13
Mi 18.05. 16:20251554 %1021
1021
1019
SO 3 (8)
O - SSW
>= 10000Nicht signifikant 
LUEBECK/BLANKENS
DE 13
Mi 18.05. 15:50241454 %1021
1021
1019
SO 3 (9)
O - S
>= 10000Nicht signifikant 
LUEBECK/BLANKENS
DE 13
Mi 18.05. 15:20241454 %1022
1022
1020
SO 3 (9)
O - S
>= 10000Nicht signifikant 

Altimeter: Einstellung am Altimeter (Höhenmesser), die Höhe 0 muss auf diesen Luftdruckwert zeigen, damit das Gerät die Stationshöhe richtig anzeigt.

NN: Luftdruck reduziert auf "Normal Null", auf Meereshöhe, dieser von der Temperatur abhängige Wert wird bisweilen unkorrekt einfach als "Luftdruck" bezeichnet. Eigentlich nur eine fiktive Größe, die es erlaubt, Stationen auf unterschiedlichen Höhen miteinander zu vergleichen.

Station: Realer Luftdruck an der Station.